Impacts TAF Board INFO
FOR SITUATIONAL AWARENESS. NOT TO BE USED FOR FLIGHT PLANNING PURPOSES.
IDs:

KPIT - Pittsburgh Intl, PA, US

Issued at 0846 UTC 17 Dec 2017
Updated at 0950 UTC 17 Dec 2017
Potential Impact None Slight Moderate High
Time<<17/22Z 17/23Z 18/00Z 18/01Z 18/02Z 18/03Z 18/04Z 18/05Z 18/06Z 18/07Z 18/08Z 18/09Z 18/10Z>>
Type PRVL PRVL PRVL PRVL PRVL PRVL PRVL PRVL PRVL PRVL PRVL PRVL PRVL
VIS >6 >6 >6 >6 >6 >6 >6 >6 >6 >6 >6 >6 >6
CIG -- -- 30 30 30 30 30 30 30 30 30 30 30
Cover SCT SCT OVC OVC OVC OVC OVC OVC OVC OVC OVC OVC OVC
FltCat VFR VFR MVFR MVFR MVFR MVFR MVFR MVFR MVFR MVFR MVFR MVFR MVFR
WX -- -- VCSH VCSH VCSH VCSH VCSH VCSH VCSH VCSH VCSH VCSH VCSH
WDir 210 210 210 210 210 210 210 210 210 210 210 210 210
WSpd 4 4 4 4 4 4 4 4 4 4 4 4 4
WGst -- -- -- -- -- -- -- -- -- -- -- -- --

Raw TAF
KPIT 170846Z 1709/1812 21004KT P6SM SCT200
  FM180000 21004KT P6SM VCSH OVC030


METAR Board
Radar Display
Forecast Discussion

FOR SITUATIONAL AWARENESS. NOT TO BE USED FOR FLIGHT PLANNING PURPOSES.